N737MT KRDU-MDPC
Flight info
| Callsign | N737MT |
|---|---|
| Flight time | 2h 45m |
| Altitude | 35000 |
| Route | KRDU/23L N0430F350 ROZBO5 ROZBO DCT GARIC DCT CLOWR DCT JAINS/M073F350 L451 LETON/N0430F350 L451 IORIO DCT POKEG DCT PIXAR W11 BEREL BERE2B MDPC/09 |
| Aircraft | B733/M-VGDW/C |
Departure
| Time | 2026-05-07 01:45 |
|---|---|
| Airport | Raleigh-Durham International Airport (KRDU) |
Arrival
| Time | 2026-05-07 04:30 |
|---|---|
| Airport | Punta Cana International Airport (MDPC) |
| Time | Latitude | Longitude | Altitude | Speed | Heading |
|---|---|---|---|---|---|
| 2026-05-07 01:10 | 35.88039 | -78.78378 | 424 ft | 0 kts | 44° |
| 2026-05-07 01:27 | 35.88042 | -78.78374 | 424 ft | 1 kts | 44° |
| 2026-05-07 01:27 | 35.88050 | -78.78365 | 424 ft | 2 kts | 44° |
| 2026-05-07 01:27 | 35.88056 | -78.78358 | 424 ft | 0 kts | 44° |
| 2026-05-07 01:29 | 35.88058 | -78.78355 | 424 ft | 1 kts | 50° |
| 2026-05-07 01:29 | 35.88059 | -78.78339 | 424 ft | 1 kts | 105° |
| 2026-05-07 01:29 | 35.88057 | -78.78330 | 424 ft | 1 kts | 115° |
| 2026-05-07 01:30 | 35.88041 | -78.78305 | 424 ft | 4 kts | 124° |
| 2026-05-07 01:30 | 35.88021 | -78.78271 | 424 ft | 5 kts | 133° |
| 2026-05-07 01:30 | 35.87996 | -78.78242 | 425 ft | 0 kts | 135° |
| 2026-05-07 01:34 | 35.87987 | -78.78231 | 425 ft | 4 kts | 135° |
| 2026-05-07 01:34 | 35.87969 | -78.78181 | 424 ft | 9 kts | 78° |
| 2026-05-07 01:34 | 35.88007 | -78.78116 | 422 ft | 0 kts | 68° |
| 2026-05-07 01:35 | 35.88008 | -78.78110 | 422 ft | 1 kts | 83° |
| 2026-05-07 01:35 | 35.88008 | -78.78103 | 422 ft | 0 kts | 94° |
| 2026-05-07 01:37 | 35.88007 | -78.78095 | 422 ft | 3 kts | 101° |
| 2026-05-07 01:37 | 35.87987 | -78.78049 | 421 ft | 8 kts | 127° |
| 2026-05-07 01:37 | 35.87980 | -78.78037 | 421 ft | 0 kts | 127° |
| 2026-05-07 01:39 | 35.87974 | -78.78028 | 420 ft | 2 kts | 127° |
| 2026-05-07 01:43 | 35.87965 | -78.78014 | 420 ft | 6 kts | 131° |
| 2026-05-07 01:44 | 35.87897 | -78.77969 | 418 ft | 14 kts | 205° |
| 2026-05-07 01:44 | 35.87872 | -78.77994 | 420 ft | 0 kts | 226° |
| 2026-05-07 01:44 | 35.87830 | -78.78047 | 422 ft | 39 kts | 225° |
| 2026-05-07 01:44 | 35.87410 | -78.78563 | 427 ft | 128 kts | 225° |
| 2026-05-07 01:45 | 35.86613 | -78.79544 | 439 ft | 192 kts | 225° |
| 2026-05-07 01:45 | 35.85686 | -78.80687 | 1444 ft | 188 kts | 223° |
| 2026-05-07 01:45 | 35.84609 | -78.81587 | 2309 ft | 202 kts | 199° |
| 2026-05-07 01:45 | 35.83185 | -78.81451 | 3016 ft | 221 kts | 159° |
| 2026-05-07 01:46 | 35.81803 | -78.80568 | 3719 ft | 231 kts | 161° |
| 2026-05-07 01:46 | 35.80299 | -78.79768 | 4407 ft | 239 kts | 165° |
| 2026-05-07 01:46 | 35.78731 | -78.79062 | 5041 ft | 244 kts | 167° |
| 2026-05-07 01:46 | 35.77125 | -78.78424 | 5659 ft | 243 kts | 170° |
| 2026-05-07 01:47 | 35.75511 | -78.77841 | 6312 ft | 244 kts | 171° |
| 2026-05-07 01:47 | 35.73875 | -78.77289 | 6954 ft | 249 kts | 172° |
| 2026-05-07 01:47 | 35.72192 | -78.76749 | 7623 ft | 253 kts | 173° |
| 2026-05-07 01:47 | 35.70450 | -78.76210 | 8293 ft | 258 kts | 172° |
| 2026-05-07 01:48 | 35.68718 | -78.75686 | 8954 ft | 261 kts | 173° |
| 2026-05-07 01:48 | 35.66954 | -78.75161 | 9608 ft | 264 kts | 173° |
| 2026-05-07 01:48 | 35.65142 | -78.74627 | 10264 ft | 267 kts | 174° |
| 2026-05-07 01:48 | 35.63329 | -78.74097 | 10932 ft | 268 kts | 174° |
| 2026-05-07 01:49 | 35.61523 | -78.73573 | 11523 ft | 273 kts | 174° |
| 2026-05-07 01:49 | 35.59630 | -78.73029 | 11869 ft | 287 kts | 174° |
| 2026-05-07 01:49 | 35.57648 | -78.72459 | 12016 ft | 299 kts | 174° |
| 2026-05-07 01:49 | 35.55553 | -78.71858 | 11969 ft | 316 kts | 173° |
| 2026-05-07 01:50 | 35.53417 | -78.71236 | 11939 ft | 317 kts | 174° |
| 2026-05-07 01:50 | 35.51241 | -78.70631 | 11952 ft | 317 kts | 177° |
| 2026-05-07 01:50 | 35.49014 | -78.70290 | 11949 ft | 329 kts | 180° |
| 2026-05-07 01:50 | 35.46752 | -78.69978 | 12108 ft | 330 kts | 180° |
| 2026-05-07 01:51 | 35.44438 | -78.69656 | 12481 ft | 333 kts | 180° |
| 2026-05-07 01:51 | 35.42138 | -78.69328 | 12855 ft | 336 kts | 180° |
| 2026-05-07 01:51 | 35.39831 | -78.69001 | 13275 ft | 337 kts | 180° |
| 2026-05-07 01:51 | 35.37499 | -78.68668 | 13765 ft | 341 kts | 181° |
| 2026-05-07 01:52 | 35.35123 | -78.68331 | 14262 ft | 347 kts | 180° |
| 2026-05-07 01:52 | 35.32677 | -78.67983 | 14749 ft | 353 kts | 180° |
| 2026-05-07 01:52 | 35.30250 | -78.67636 | 15234 ft | 356 kts | 180° |
| 2026-05-07 01:52 | 35.27771 | -78.67281 | 15728 ft | 357 kts | 180° |
| 2026-05-07 01:53 | 35.25310 | -78.66929 | 16212 ft | 359 kts | 181° |
| 2026-05-07 01:53 | 35.22825 | -78.66576 | 16710 ft | 363 kts | 180° |
| 2026-05-07 01:53 | 35.20288 | -78.66213 | 17206 ft | 366 kts | 180° |
| 2026-05-07 01:53 | 35.17757 | -78.65853 | 17684 ft | 371 kts | 180° |
| 2026-05-07 01:54 | 35.15177 | -78.65484 | 18183 ft | 371 kts | 180° |
| 2026-05-07 01:54 | 35.12612 | -78.65118 | 18670 ft | 375 kts | 180° |
| 2026-05-07 01:54 | 35.10006 | -78.64748 | 19153 ft | 378 kts | 180° |
| 2026-05-07 01:54 | 35.07375 | -78.64377 | 19640 ft | 381 kts | 180° |
| 2026-05-07 01:55 | 35.04755 | -78.64003 | 20125 ft | 384 kts | 180° |
| 2026-05-07 01:55 | 35.02092 | -78.63625 | 20603 ft | 386 kts | 180° |
| 2026-05-07 01:55 | 34.99401 | -78.63245 | 21098 ft | 388 kts | 180° |
| 2026-05-07 01:55 | 34.96735 | -78.62865 | 21583 ft | 390 kts | 180° |
| 2026-05-07 01:56 | 34.94051 | -78.62125 | 22054 ft | 403 kts | 162° |
| 2026-05-07 01:56 | 34.91549 | -78.60515 | 22557 ft | 408 kts | 156° |
| 2026-05-07 01:56 | 34.89057 | -78.58842 | 23023 ft | 408 kts | 158° |
| 2026-05-07 01:56 | 34.86550 | -78.57253 | 23494 ft | 408 kts | 159° |
| 2026-05-07 01:57 | 34.84023 | -78.55698 | 24000 ft | 407 kts | 159° |
| 2026-05-07 01:57 | 34.81491 | -78.54156 | 24506 ft | 406 kts | 160° |
| 2026-05-07 01:57 | 34.78956 | -78.52620 | 25009 ft | 405 kts | 161° |
| 2026-05-07 01:57 | 34.76443 | -78.51101 | 25506 ft | 404 kts | 161° |
| 2026-05-07 01:58 | 34.73940 | -78.49590 | 25997 ft | 403 kts | 161° |
| 2026-05-07 01:58 | 34.71432 | -78.48077 | 26482 ft | 401 kts | 161° |
| 2026-05-07 01:58 | 34.68921 | -78.46565 | 26785 ft | 405 kts | 161° |
| 2026-05-07 01:58 | 34.66385 | -78.45040 | 27088 ft | 408 kts | 161° |
| 2026-05-07 01:59 | 34.63827 | -78.43501 | 27358 ft | 412 kts | 161° |
| 2026-05-07 01:59 | 34.61245 | -78.41949 | 27638 ft | 416 kts | 161° |
| 2026-05-07 01:59 | 34.58637 | -78.40382 | 27924 ft | 420 kts | 161° |
| 2026-05-07 01:59 | 34.56036 | -78.38820 | 28210 ft | 423 kts | 160° |
| 2026-05-07 02:00 | 34.53394 | -78.37234 | 28499 ft | 426 kts | 160° |
| 2026-05-07 02:00 | 34.50725 | -78.35634 | 28780 ft | 429 kts | 161° |
| 2026-05-07 02:00 | 34.48035 | -78.34018 | 29053 ft | 432 kts | 161° |
| 2026-05-07 02:00 | 34.45330 | -78.32383 | 29338 ft | 434 kts | 161° |
| 2026-05-07 02:01 | 34.42625 | -78.30756 | 29612 ft | 436 kts | 162° |
| 2026-05-07 02:01 | 34.39914 | -78.29131 | 29893 ft | 438 kts | 161° |
| 2026-05-07 02:01 | 34.37170 | -78.27491 | 30177 ft | 439 kts | 162° |
| 2026-05-07 02:01 | 34.34421 | -78.25851 | 30451 ft | 441 kts | 161° |
| 2026-05-07 02:02 | 34.31659 | -78.24200 | 30741 ft | 442 kts | 162° |
| 2026-05-07 02:02 | 34.29616 | -78.22983 | 30957 ft | 443 kts | 162° |
| 2026-05-07 02:02 | 34.26850 | -78.21335 | 31228 ft | 444 kts | 162° |
| 2026-05-07 02:02 | 34.24075 | -78.19683 | 31506 ft | 445 kts | 162° |
| 2026-05-07 02:03 | 34.21301 | -78.18032 | 31796 ft | 445 kts | 162° |
| 2026-05-07 02:03 | 34.18516 | -78.16375 | 32082 ft | 445 kts | 162° |
| 2026-05-07 02:03 | 34.15732 | -78.14722 | 32347 ft | 446 kts | 163° |
| 2026-05-07 02:03 | 34.12955 | -78.13074 | 32635 ft | 445 kts | 163° |
| 2026-05-07 02:04 | 34.10175 | -78.11424 | 32913 ft | 445 kts | 163° |
| 2026-05-07 02:04 | 34.07396 | -78.09777 | 33182 ft | 445 kts | 162° |
| 2026-05-07 02:04 | 34.04653 | -78.08151 | 33459 ft | 444 kts | 163° |
| 2026-05-07 02:04 | 34.01878 | -78.06509 | 33747 ft | 443 kts | 163° |
| 2026-05-07 02:05 | 33.99108 | -78.04870 | 34020 ft | 442 kts | 162° |
| 2026-05-07 02:05 | 33.96356 | -78.03243 | 34304 ft | 441 kts | 162° |
| 2026-05-07 02:05 | 33.93611 | -78.01622 | 34572 ft | 440 kts | 162° |
| 2026-05-07 02:05 | 33.90861 | -78.00000 | 34780 ft | 441 kts | 163° |
| 2026-05-07 02:06 | 33.88084 | -77.98368 | 34939 ft | 443 kts | 165° |
| 2026-05-07 02:06 | 33.85234 | -77.97135 | 35022 ft | 430 kts | 177° |
| 2026-05-07 02:06 | 33.82347 | -77.96303 | 34950 ft | 433 kts | 179° |
| 2026-05-07 02:07 | 33.76410 | -77.94566 | 34940 ft | 444 kts | 176° |
| 2026-05-07 02:07 | 33.67273 | -77.91666 | 34911 ft | 458 kts | 175° |
| 2026-05-07 02:08 | 33.61061 | -77.89684 | 34910 ft | 465 kts | 175° |
| 2026-05-07 02:08 | 33.54765 | -77.87681 | 34888 ft | 471 kts | 174° |
| 2026-05-07 02:09 | 33.48407 | -77.85660 | 34925 ft | 475 kts | 175° |
| 2026-05-07 02:09 | 33.42012 | -77.83633 | 34952 ft | 479 kts | 174° |
| 2026-05-07 02:10 | 33.35545 | -77.81584 | 34956 ft | 482 kts | 174° |
| 2026-05-07 02:10 | 33.29036 | -77.79525 | 34955 ft | 486 kts | 174° |
| 2026-05-07 02:11 | 33.22466 | -77.77451 | 34957 ft | 488 kts | 174° |
| 2026-05-07 02:11 | 33.15905 | -77.75381 | 34955 ft | 488 kts | 174° |
| 2026-05-07 02:12 | 33.09327 | -77.73311 | 34956 ft | 489 kts | 174° |
| 2026-05-07 02:12 | 33.02717 | -77.71236 | 34959 ft | 492 kts | 174° |
| 2026-05-07 02:13 | 32.96126 | -77.69167 | 34965 ft | 493 kts | 174° |
| 2026-05-07 02:13 | 32.89451 | -77.67075 | 34986 ft | 494 kts | 174° |
| 2026-05-07 02:14 | 32.82828 | -77.65005 | 34964 ft | 490 kts | 174° |
| 2026-05-07 02:14 | 32.76261 | -77.62955 | 34935 ft | 487 kts | 174° |
| 2026-05-07 02:15 | 32.69671 | -77.60901 | 34945 ft | 486 kts | 173° |
| 2026-05-07 02:15 | 32.63142 | -77.58868 | 34956 ft | 486 kts | 174° |
| 2026-05-07 02:16 | 32.56602 | -77.56834 | 34947 ft | 484 kts | 174° |
| 2026-05-07 02:16 | 32.50092 | -77.54813 | 34953 ft | 484 kts | 174° |
| 2026-05-07 02:17 | 32.43554 | -77.52791 | 34950 ft | 487 kts | 174° |
| 2026-05-07 02:17 | 32.36995 | -77.50761 | 34955 ft | 489 kts | 174° |
| 2026-05-07 02:18 | 32.30372 | -77.48714 | 34950 ft | 491 kts | 174° |
| 2026-05-07 02:18 | 32.23827 | -77.46201 | 34973 ft | 503 kts | 163° |
| 2026-05-07 02:19 | 32.17464 | -77.42699 | 34960 ft | 505 kts | 162° |
| 2026-05-07 02:19 | 32.11067 | -77.39300 | 34966 ft | 507 kts | 163° |
| 2026-05-07 02:20 | 32.04619 | -77.35918 | 34969 ft | 507 kts | 163° |
| 2026-05-07 02:20 | 31.98168 | -77.32521 | 34963 ft | 508 kts | 164° |
| 2026-05-07 02:21 | 31.91700 | -77.29122 | 34973 ft | 506 kts | 164° |
| 2026-05-07 02:21 | 31.85263 | -77.25765 | 34980 ft | 505 kts | 163° |
| 2026-05-07 02:22 | 31.78863 | -77.22432 | 34981 ft | 504 kts | 163° |
| 2026-05-07 02:22 | 31.72474 | -77.19102 | 34936 ft | 502 kts | 163° |
| 2026-05-07 02:23 | 31.66109 | -77.15793 | 34978 ft | 501 kts | 162° |
| 2026-05-07 02:23 | 31.59714 | -77.12472 | 35013 ft | 502 kts | 162° |
| 2026-05-07 02:24 | 31.53336 | -77.09165 | 35011 ft | 504 kts | 162° |
| 2026-05-07 02:24 | 31.46896 | -77.05830 | 35012 ft | 504 kts | 162° |
| 2026-05-07 02:25 | 31.40482 | -77.02515 | 35012 ft | 505 kts | 162° |
| 2026-05-07 02:25 | 31.34126 | -76.99010 | 34979 ft | 512 kts | 149° |
| 2026-05-07 02:26 | 31.28694 | -76.93565 | 35005 ft | 516 kts | 142° |
| 2026-05-07 02:26 | 31.23230 | -76.88131 | 35024 ft | 515 kts | 144° |
| 2026-05-07 02:27 | 31.17699 | -76.82825 | 35027 ft | 515 kts | 144° |
| 2026-05-07 02:27 | 31.12162 | -76.77518 | 35019 ft | 515 kts | 144° |
| 2026-05-07 02:28 | 31.06618 | -76.72205 | 35020 ft | 516 kts | 144° |
| 2026-05-07 02:28 | 31.01114 | -76.66940 | 35022 ft | 516 kts | 144° |
| 2026-05-07 02:29 | 30.95567 | -76.61643 | 35029 ft | 515 kts | 144° |
| 2026-05-07 02:29 | 30.90004 | -76.56338 | 35024 ft | 516 kts | 144° |
| 2026-05-07 02:30 | 30.84448 | -76.51067 | 35037 ft | 515 kts | 144° |
| 2026-05-07 02:30 | 30.78869 | -76.45770 | 35020 ft | 517 kts | 144° |
| 2026-05-07 02:31 | 30.73328 | -76.40511 | 35026 ft | 517 kts | 144° |
| 2026-05-07 02:31 | 30.67761 | -76.35234 | 35037 ft | 517 kts | 144° |
| 2026-05-07 02:32 | 30.62196 | -76.29945 | 35040 ft | 516 kts | 145° |
| 2026-05-07 02:32 | 30.56639 | -76.24687 | 35028 ft | 517 kts | 145° |
| 2026-05-07 02:33 | 30.51038 | -76.19405 | 35022 ft | 517 kts | 144° |
| 2026-05-07 02:33 | 30.45486 | -76.14175 | 35038 ft | 517 kts | 145° |
| 2026-05-07 02:34 | 30.39904 | -76.08926 | 35035 ft | 517 kts | 144° |
| 2026-05-07 02:34 | 30.34322 | -76.03683 | 35041 ft | 516 kts | 145° |
| 2026-05-07 02:35 | 30.28744 | -75.98453 | 35041 ft | 517 kts | 144° |
| 2026-05-07 02:35 | 30.23155 | -75.93220 | 35020 ft | 515 kts | 144° |
| 2026-05-07 02:36 | 30.17601 | -75.88029 | 35032 ft | 514 kts | 143° |
| 2026-05-07 02:36 | 30.12061 | -75.82857 | 35075 ft | 514 kts | 143° |
| 2026-05-07 02:37 | 30.06481 | -75.77657 | 35094 ft | 512 kts | 143° |
| 2026-05-07 02:37 | 30.00956 | -75.72514 | 35096 ft | 512 kts | 143° |
| 2026-05-07 02:38 | 29.95390 | -75.67343 | 35101 ft | 512 kts | 143° |
| 2026-05-07 02:38 | 29.89861 | -75.62212 | 35101 ft | 511 kts | 143° |
| 2026-05-07 02:39 | 29.84323 | -75.57101 | 35099 ft | 510 kts | 142° |
| 2026-05-07 02:39 | 29.78787 | -75.51985 | 35096 ft | 511 kts | 143° |
| 2026-05-07 02:40 | 29.73253 | -75.46873 | 35104 ft | 511 kts | 142° |
| 2026-05-07 02:40 | 29.67696 | -75.41746 | 35110 ft | 511 kts | 142° |
| 2026-05-07 02:41 | 29.62135 | -75.36623 | 35098 ft | 511 kts | 142° |
| 2026-05-07 02:41 | 29.56598 | -75.31516 | 35092 ft | 510 kts | 142° |
| 2026-05-07 02:42 | 29.51057 | -75.26412 | 35097 ft | 510 kts | 143° |
| 2026-05-07 02:42 | 29.45533 | -75.21345 | 35103 ft | 511 kts | 143° |
| 2026-05-07 02:43 | 29.39977 | -75.16258 | 35107 ft | 511 kts | 143° |
| 2026-05-07 02:43 | 29.34426 | -75.11182 | 35112 ft | 511 kts | 143° |
| 2026-05-07 02:44 | 29.28871 | -75.06110 | 35108 ft | 511 kts | 143° |
| 2026-05-07 02:44 | 29.23307 | -75.01036 | 35107 ft | 512 kts | 142° |
| 2026-05-07 02:45 | 29.17731 | -74.95959 | 35116 ft | 512 kts | 142° |
| 2026-05-07 02:45 | 29.12162 | -74.90895 | 35098 ft | 512 kts | 143° |
| 2026-05-07 02:46 | 29.06573 | -74.85822 | 35090 ft | 510 kts | 143° |
| 2026-05-07 02:46 | 29.01022 | -74.80790 | 35105 ft | 511 kts | 143° |
| 2026-05-07 02:47 | 28.95458 | -74.75753 | 35110 ft | 513 kts | 142° |
| 2026-05-07 02:47 | 28.89875 | -74.70705 | 35114 ft | 514 kts | 142° |
| 2026-05-07 02:48 | 28.84271 | -74.65666 | 35127 ft | 510 kts | 143° |
| 2026-05-07 02:48 | 28.78702 | -74.60652 | 35113 ft | 511 kts | 142° |
| 2026-05-07 02:49 | 28.73122 | -74.55628 | 35113 ft | 511 kts | 142° |
| 2026-05-07 02:49 | 28.67533 | -74.50604 | 35107 ft | 511 kts | 142° |
| 2026-05-07 02:50 | 28.61944 | -74.45587 | 35099 ft | 512 kts | 142° |
| 2026-05-07 02:50 | 28.56344 | -74.40568 | 35114 ft | 512 kts | 142° |
| 2026-05-07 02:51 | 28.50720 | -74.35534 | 35112 ft | 513 kts | 142° |
| 2026-05-07 02:51 | 28.45133 | -74.30518 | 35117 ft | 512 kts | 142° |
| 2026-05-07 02:52 | 28.39533 | -74.25510 | 35106 ft | 512 kts | 142° |
| 2026-05-07 02:52 | 28.33936 | -74.20522 | 35108 ft | 512 kts | 142° |
| 2026-05-07 02:53 | 28.28312 | -74.15516 | 35108 ft | 513 kts | 142° |
| 2026-05-07 02:53 | 28.22621 | -74.10766 | 35102 ft | 510 kts | 152° |
| 2026-05-07 02:54 | 28.16414 | -74.06883 | 35121 ft | 510 kts | 152° |
| 2026-05-07 02:54 | 28.10276 | -74.02785 | 35114 ft | 511 kts | 150° |
| 2026-05-07 02:55 | 28.04176 | -73.98644 | 35111 ft | 512 kts | 150° |
| 2026-05-07 02:55 | 27.98069 | -73.94514 | 35115 ft | 511 kts | 150° |
| 2026-05-07 02:56 | 27.91978 | -73.90402 | 35114 ft | 511 kts | 150° |
| 2026-05-07 02:56 | 27.85888 | -73.86304 | 35089 ft | 510 kts | 150° |
| 2026-05-07 02:57 | 27.79790 | -73.82207 | 35108 ft | 511 kts | 149° |
| 2026-05-07 02:57 | 27.73655 | -73.78080 | 35113 ft | 510 kts | 150° |
| 2026-05-07 02:58 | 27.67555 | -73.73982 | 35117 ft | 510 kts | 149° |
| 2026-05-07 02:58 | 27.61475 | -73.69904 | 35120 ft | 510 kts | 149° |
| 2026-05-07 02:59 | 27.55385 | -73.65824 | 35116 ft | 511 kts | 149° |
| 2026-05-07 02:59 | 27.49266 | -73.61730 | 35125 ft | 510 kts | 149° |
| 2026-05-07 03:00 | 27.43160 | -73.57650 | 35118 ft | 510 kts | 149° |
| 2026-05-07 03:00 | 27.37028 | -73.53558 | 35117 ft | 510 kts | 149° |
| 2026-05-07 03:01 | 27.30940 | -73.49500 | 35118 ft | 510 kts | 149° |
| 2026-05-07 03:01 | 27.24814 | -73.45423 | 35120 ft | 510 kts | 149° |
| 2026-05-07 03:02 | 27.18726 | -73.41376 | 35117 ft | 511 kts | 149° |
| 2026-05-07 03:02 | 27.12599 | -73.37309 | 35119 ft | 510 kts | 149° |
| 2026-05-07 03:03 | 27.06472 | -73.33239 | 35085 ft | 510 kts | 149° |
| 2026-05-07 03:03 | 27.00370 | -73.29178 | 35116 ft | 510 kts | 149° |
| 2026-05-07 03:04 | 26.94241 | -73.25124 | 35117 ft | 510 kts | 149° |
| 2026-05-07 03:04 | 26.88127 | -73.21088 | 35070 ft | 510 kts | 149° |
| 2026-05-07 03:05 | 26.82020 | -73.17075 | 35127 ft | 509 kts | 149° |
| 2026-05-07 03:05 | 26.75901 | -73.13045 | 35128 ft | 510 kts | 149° |
| 2026-05-07 03:06 | 26.69798 | -73.09029 | 35127 ft | 509 kts | 149° |
| 2026-05-07 03:06 | 26.63699 | -73.05022 | 35131 ft | 509 kts | 148° |
| 2026-05-07 03:07 | 26.57565 | -73.00996 | 35129 ft | 509 kts | 148° |
| 2026-05-07 03:07 | 26.51445 | -72.96983 | 35118 ft | 509 kts | 148° |
| 2026-05-07 03:08 | 26.45342 | -72.92989 | 35116 ft | 510 kts | 148° |
| 2026-05-07 03:08 | 26.39195 | -72.88969 | 35113 ft | 509 kts | 148° |
| 2026-05-07 03:09 | 26.33091 | -72.84983 | 35113 ft | 509 kts | 148° |
| 2026-05-07 03:09 | 26.26949 | -72.80977 | 35113 ft | 509 kts | 148° |
| 2026-05-07 03:10 | 26.20810 | -72.76977 | 35113 ft | 509 kts | 148° |
| 2026-05-07 03:10 | 26.14716 | -72.73012 | 35112 ft | 509 kts | 148° |
| 2026-05-07 03:11 | 26.08591 | -72.69031 | 35117 ft | 509 kts | 148° |
| 2026-05-07 03:11 | 26.02449 | -72.65046 | 35113 ft | 510 kts | 148° |
| 2026-05-07 03:12 | 25.96339 | -72.61085 | 35116 ft | 510 kts | 148° |
| 2026-05-07 03:12 | 25.90204 | -72.57112 | 35114 ft | 509 kts | 148° |
| 2026-05-07 03:13 | 25.84036 | -72.53139 | 35124 ft | 510 kts | 148° |
| 2026-05-07 03:13 | 25.77919 | -72.49193 | 35112 ft | 511 kts | 148° |
| 2026-05-07 03:14 | 25.71744 | -72.45208 | 35110 ft | 512 kts | 148° |
| 2026-05-07 03:15 | 25.62492 | -72.39249 | 35107 ft | 511 kts | 148° |
| 2026-05-07 03:15 | 25.56361 | -72.35305 | 35115 ft | 510 kts | 148° |
| 2026-05-07 03:16 | 25.50186 | -72.31318 | 35117 ft | 511 kts | 148° |
| 2026-05-07 03:16 | 25.44073 | -72.27388 | 35112 ft | 510 kts | 148° |
| 2026-05-07 03:17 | 25.37915 | -72.23441 | 35114 ft | 511 kts | 148° |
| 2026-05-07 03:17 | 25.31765 | -72.19505 | 35113 ft | 510 kts | 148° |
| 2026-05-07 03:18 | 25.25602 | -72.15565 | 35115 ft | 511 kts | 148° |
| 2026-05-07 03:18 | 25.19416 | -72.11615 | 35114 ft | 511 kts | 148° |
| 2026-05-07 03:19 | 25.13271 | -72.07696 | 35115 ft | 509 kts | 148° |
| 2026-05-07 03:19 | 25.07183 | -72.03816 | 35109 ft | 507 kts | 147° |
| 2026-05-07 03:20 | 25.01061 | -71.99921 | 35115 ft | 507 kts | 147° |
| 2026-05-07 03:20 | 24.97830 | -71.98322 | 35079 ft | 508 kts | 166° |
| 2026-05-07 03:20 | 24.94360 | -71.97854 | 35131 ft | 506 kts | 181° |
| 2026-05-07 03:21 | 24.87298 | -71.97646 | 35046 ft | 511 kts | 176° |
| 2026-05-07 03:21 | 24.80199 | -71.96767 | 35106 ft | 510 kts | 173° |
| 2026-05-07 03:22 | 24.73171 | -71.95802 | 35104 ft | 511 kts | 173° |
| 2026-05-07 03:22 | 24.66127 | -71.94854 | 35114 ft | 510 kts | 173° |
| 2026-05-07 03:23 | 24.59055 | -71.93906 | 35116 ft | 510 kts | 173° |
| 2026-05-07 03:23 | 24.52017 | -71.92962 | 35105 ft | 510 kts | 173° |
| 2026-05-07 03:24 | 24.44973 | -71.92019 | 35112 ft | 510 kts | 173° |
| 2026-05-07 03:24 | 24.37909 | -71.91074 | 35110 ft | 510 kts | 173° |
| 2026-05-07 03:25 | 24.30827 | -71.90127 | 35115 ft | 511 kts | 173° |
| 2026-05-07 03:25 | 24.23795 | -71.89188 | 35115 ft | 510 kts | 173° |
| 2026-05-07 03:26 | 24.16696 | -71.88242 | 35110 ft | 510 kts | 173° |
| 2026-05-07 03:26 | 24.09617 | -71.87265 | 35109 ft | 510 kts | 168° |
| 2026-05-07 03:26 | 24.06291 | -71.86038 | 35133 ft | 504 kts | 152° |
| 2026-05-07 03:27 | 24.03126 | -71.84311 | 35077 ft | 507 kts | 151° |
| 2026-05-07 03:27 | 23.96707 | -71.81008 | 35112 ft | 507 kts | 154° |
| 2026-05-07 03:28 | 23.90228 | -71.77917 | 35118 ft | 507 kts | 154° |
| 2026-05-07 03:28 | 23.83770 | -71.74857 | 35123 ft | 506 kts | 154° |
| 2026-05-07 03:29 | 23.77267 | -71.71764 | 35104 ft | 507 kts | 154° |
| 2026-05-07 03:29 | 23.70762 | -71.68671 | 35112 ft | 509 kts | 154° |
| 2026-05-07 03:30 | 23.64273 | -71.65588 | 35118 ft | 508 kts | 154° |
| 2026-05-07 03:30 | 23.57770 | -71.62503 | 35110 ft | 507 kts | 154° |
| 2026-05-07 03:31 | 23.51294 | -71.59434 | 35107 ft | 507 kts | 154° |
| 2026-05-07 03:31 | 23.44806 | -71.56362 | 35101 ft | 504 kts | 154° |
| 2026-05-07 03:32 | 23.38373 | -71.53319 | 35098 ft | 506 kts | 154° |
| 2026-05-07 03:32 | 23.31903 | -71.50262 | 35096 ft | 506 kts | 154° |
| 2026-05-07 03:33 | 23.25442 | -71.47214 | 35102 ft | 506 kts | 154° |
| 2026-05-07 03:33 | 23.18958 | -71.44157 | 35093 ft | 505 kts | 154° |
| 2026-05-07 03:34 | 23.12504 | -71.41117 | 35096 ft | 506 kts | 154° |
| 2026-05-07 03:34 | 23.06035 | -71.38075 | 35095 ft | 504 kts | 154° |
| 2026-05-07 03:35 | 22.99630 | -71.35064 | 35080 ft | 504 kts | 154° |
| 2026-05-07 03:35 | 22.93158 | -71.32004 | 35085 ft | 504 kts | 154° |
| 2026-05-07 03:36 | 22.86722 | -71.28983 | 35042 ft | 505 kts | 154° |
| 2026-05-07 03:36 | 22.80217 | -71.25946 | 35114 ft | 506 kts | 154° |
| 2026-05-07 03:37 | 22.73747 | -71.22919 | 35106 ft | 505 kts | 154° |
| 2026-05-07 03:37 | 22.67283 | -71.19897 | 35098 ft | 506 kts | 154° |
| 2026-05-07 03:38 | 22.60814 | -71.16876 | 35099 ft | 505 kts | 154° |
| 2026-05-07 03:38 | 22.54359 | -71.13863 | 35096 ft | 506 kts | 154° |
| 2026-05-07 03:39 | 22.47875 | -71.10842 | 35090 ft | 505 kts | 154° |
| 2026-05-07 03:39 | 22.41412 | -71.07832 | 35084 ft | 506 kts | 154° |
| 2026-05-07 03:40 | 22.34957 | -71.04830 | 35087 ft | 505 kts | 154° |
| 2026-05-07 03:40 | 22.28492 | -71.01826 | 35087 ft | 506 kts | 154° |
| 2026-05-07 03:41 | 22.21973 | -70.98801 | 35085 ft | 507 kts | 154° |
| 2026-05-07 03:41 | 22.15501 | -70.95799 | 35075 ft | 504 kts | 154° |
| 2026-05-07 03:42 | 22.09069 | -70.92819 | 35073 ft | 504 kts | 154° |
| 2026-05-07 03:42 | 22.02628 | -70.89839 | 35069 ft | 504 kts | 154° |
| 2026-05-07 03:43 | 21.96310 | -70.86918 | 35068 ft | 504 kts | 154° |
| 2026-05-07 03:43 | 21.89887 | -70.83951 | 35073 ft | 504 kts | 154° |
| 2026-05-07 03:44 | 21.83414 | -70.80976 | 35112 ft | 504 kts | 154° |
| 2026-05-07 03:44 | 21.76926 | -70.77988 | 35109 ft | 506 kts | 154° |
| 2026-05-07 03:45 | 21.70450 | -70.75005 | 35107 ft | 505 kts | 154° |
| 2026-05-07 03:45 | 21.63952 | -70.72016 | 35101 ft | 506 kts | 154° |
| 2026-05-07 03:46 | 21.57503 | -70.69052 | 35094 ft | 505 kts | 154° |
| 2026-05-07 03:46 | 21.51010 | -70.66071 | 35095 ft | 507 kts | 154° |
| 2026-05-07 03:47 | 21.44522 | -70.63095 | 35098 ft | 504 kts | 154° |
| 2026-05-07 03:47 | 21.38044 | -70.60126 | 35092 ft | 506 kts | 154° |
| 2026-05-07 03:48 | 21.31550 | -70.57153 | 35091 ft | 504 kts | 154° |
| 2026-05-07 03:48 | 21.25108 | -70.54206 | 35090 ft | 505 kts | 154° |
| 2026-05-07 03:49 | 21.18629 | -70.51246 | 35077 ft | 505 kts | 154° |
| 2026-05-07 03:49 | 21.12159 | -70.48292 | 35077 ft | 505 kts | 154° |
| 2026-05-07 03:50 | 21.05688 | -70.45341 | 35083 ft | 505 kts | 154° |
| 2026-05-07 03:50 | 20.99204 | -70.42387 | 35073 ft | 504 kts | 154° |
| 2026-05-07 03:51 | 20.92746 | -70.39447 | 35069 ft | 504 kts | 154° |
| 2026-05-07 03:51 | 20.86242 | -70.36495 | 35032 ft | 504 kts | 154° |
| 2026-05-07 03:52 | 20.79766 | -70.33552 | 35056 ft | 504 kts | 154° |
| 2026-05-07 03:52 | 20.73321 | -70.30608 | 35071 ft | 504 kts | 154° |
| 2026-05-07 03:53 | 20.66863 | -70.27679 | 35060 ft | 503 kts | 155° |
| 2026-05-07 03:53 | 20.60414 | -70.24757 | 35069 ft | 503 kts | 154° |
| 2026-05-07 03:54 | 20.53922 | -70.21818 | 35054 ft | 505 kts | 154° |
| 2026-05-07 03:54 | 20.47469 | -70.18900 | 35061 ft | 504 kts | 154° |
| 2026-05-07 03:55 | 20.40988 | -70.15971 | 35060 ft | 505 kts | 154° |
| 2026-05-07 03:55 | 20.34512 | -70.13048 | 35053 ft | 506 kts | 154° |
| 2026-05-07 03:56 | 20.28036 | -70.10127 | 35056 ft | 505 kts | 154° |
| 2026-05-07 03:56 | 20.21528 | -70.07195 | 35053 ft | 506 kts | 154° |
| 2026-05-07 03:57 | 20.15310 | -70.03872 | 35018 ft | 493 kts | 134° |
| 2026-05-07 03:57 | 20.13051 | -70.01175 | 35069 ft | 482 kts | 120° |
| 2026-05-07 03:57 | 20.11085 | -69.98286 | 34916 ft | 487 kts | 121° |
| 2026-05-07 03:57 | 20.08961 | -69.95449 | 34697 ft | 486 kts | 124° |
| 2026-05-07 03:58 | 20.06756 | -69.92742 | 34473 ft | 487 kts | 126° |
| 2026-05-07 03:58 | 20.04493 | -69.90050 | 34247 ft | 488 kts | 127° |
| 2026-05-07 03:58 | 20.02224 | -69.87370 | 34018 ft | 485 kts | 126° |
| 2026-05-07 03:58 | 19.99977 | -69.84712 | 33803 ft | 489 kts | 127° |
| 2026-05-07 03:59 | 19.97696 | -69.82011 | 33570 ft | 487 kts | 126° |
| 2026-05-07 03:59 | 19.95455 | -69.79360 | 33354 ft | 486 kts | 126° |
| 2026-05-07 03:59 | 19.93169 | -69.76656 | 33427 ft | 486 kts | 126° |
| 2026-05-07 04:00 | 19.88624 | -69.71284 | 33440 ft | 488 kts | 127° |
| 2026-05-07 04:00 | 19.84107 | -69.65974 | 33470 ft | 486 kts | 126° |
| 2026-05-07 04:01 | 19.79557 | -69.60606 | 33472 ft | 487 kts | 127° |
| 2026-05-07 04:01 | 19.75050 | -69.55291 | 33472 ft | 487 kts | 127° |
| 2026-05-07 04:02 | 19.70492 | -69.49921 | 33466 ft | 487 kts | 127° |
| 2026-05-07 04:02 | 19.65975 | -69.44604 | 33466 ft | 487 kts | 126° |
| 2026-05-07 04:03 | 19.61421 | -69.39249 | 33461 ft | 487 kts | 126° |
| 2026-05-07 04:03 | 19.56890 | -69.33922 | 33439 ft | 490 kts | 127° |
| 2026-05-07 04:04 | 19.52335 | -69.28555 | 33464 ft | 488 kts | 127° |
| 2026-05-07 04:04 | 19.47786 | -69.23217 | 33460 ft | 488 kts | 127° |
| 2026-05-07 04:05 | 19.43233 | -69.17883 | 33460 ft | 490 kts | 127° |
| 2026-05-07 04:05 | 19.38655 | -69.12522 | 33187 ft | 491 kts | 127° |
| 2026-05-07 04:05 | 19.36379 | -69.09860 | 32636 ft | 487 kts | 127° |
| 2026-05-07 04:06 | 19.34121 | -69.07222 | 32089 ft | 485 kts | 127° |
| 2026-05-07 04:06 | 19.31855 | -69.04571 | 31554 ft | 486 kts | 128° |
| 2026-05-07 04:06 | 19.29578 | -69.01911 | 31017 ft | 486 kts | 127° |
| 2026-05-07 04:06 | 19.27320 | -68.99273 | 30478 ft | 488 kts | 127° |
| 2026-05-07 04:07 | 19.25036 | -68.96607 | 29946 ft | 487 kts | 128° |
| 2026-05-07 04:07 | 19.22771 | -68.93965 | 29423 ft | 487 kts | 128° |
| 2026-05-07 04:07 | 19.20485 | -68.91298 | 28895 ft | 490 kts | 128° |
| 2026-05-07 04:07 | 19.18194 | -68.88628 | 28395 ft | 489 kts | 128° |
| 2026-05-07 04:08 | 19.15927 | -68.85988 | 27894 ft | 488 kts | 128° |
| 2026-05-07 04:08 | 19.13502 | -68.83436 | 27362 ft | 495 kts | 140° |
| 2026-05-07 04:08 | 19.10505 | -68.81713 | 26864 ft | 493 kts | 160° |
| 2026-05-07 04:08 | 19.07178 | -68.81095 | 26332 ft | 482 kts | 180° |
| 2026-05-07 04:09 | 19.03902 | -68.81661 | 25797 ft | 468 kts | 202° |
| 2026-05-07 04:09 | 19.01093 | -68.83250 | 25296 ft | 452 kts | 216° |
| 2026-05-07 04:09 | 18.98379 | -68.84798 | 24758 ft | 447 kts | 202° |
| 2026-05-07 04:09 | 18.95374 | -68.85712 | 24270 ft | 439 kts | 192° |
| 2026-05-07 04:10 | 18.92418 | -68.86217 | 24122 ft | 432 kts | 188° |
| 2026-05-07 04:10 | 18.89346 | -68.86606 | 23915 ft | 444 kts | 187° |
| 2026-05-07 04:10 | 18.86291 | -68.86944 | 23401 ft | 443 kts | 186° |
| 2026-05-07 04:10 | 18.83226 | -68.87213 | 22896 ft | 437 kts | 179° |
| 2026-05-07 04:11 | 18.80267 | -68.86660 | 22409 ft | 428 kts | 156° |
| 2026-05-07 04:11 | 18.77794 | -68.85072 | 21957 ft | 419 kts | 133° |
| 2026-05-07 04:11 | 18.76077 | -68.82664 | 21493 ft | 407 kts | 111° |
| 2026-05-07 04:11 | 18.75348 | -68.79847 | 21041 ft | 396 kts | 94° |
| 2026-05-07 04:12 | 18.74735 | -68.77018 | 20554 ft | 398 kts | 106° |
| 2026-05-07 04:12 | 18.73608 | -68.74342 | 20085 ft | 398 kts | 115° |
| 2026-05-07 04:12 | 18.72224 | -68.71849 | 19609 ft | 396 kts | 120° |
| 2026-05-07 04:12 | 18.70728 | -68.69439 | 19129 ft | 392 kts | 121° |
| 2026-05-07 04:13 | 18.68989 | -68.67248 | 18639 ft | 391 kts | 138° |
| 2026-05-07 04:13 | 18.66664 | -68.65752 | 18158 ft | 389 kts | 158° |
| 2026-05-07 04:13 | 18.64086 | -68.64996 | 17672 ft | 386 kts | 174° |
| 2026-05-07 04:13 | 18.61400 | -68.65153 | 17198 ft | 380 kts | 195° |
| 2026-05-07 04:14 | 18.59008 | -68.66223 | 16723 ft | 373 kts | 216° |
| 2026-05-07 04:14 | 18.57148 | -68.68056 | 16250 ft | 366 kts | 236° |
| 2026-05-07 04:14 | 18.56034 | -68.70416 | 15773 ft | 358 kts | 257° |
| 2026-05-07 04:14 | 18.55799 | -68.72987 | 15299 ft | 352 kts | 277° |
| 2026-05-07 04:15 | 18.56450 | -68.75424 | 14837 ft | 348 kts | 298° |
| 2026-05-07 04:15 | 18.57888 | -68.77432 | 14365 ft | 344 kts | 319° |
| 2026-05-07 04:15 | 18.59873 | -68.78807 | 13907 ft | 342 kts | 332° |
| 2026-05-07 04:15 | 18.62007 | -68.79974 | 13424 ft | 345 kts | 332° |
| 2026-05-07 04:16 | 18.64131 | -68.81122 | 12959 ft | 344 kts | 332° |
| 2026-05-07 04:16 | 18.66275 | -68.82283 | 12479 ft | 341 kts | 332° |
| 2026-05-07 04:16 | 18.68364 | -68.83422 | 12013 ft | 338 kts | 332° |
| 2026-05-07 04:16 | 18.70445 | -68.84568 | 11544 ft | 336 kts | 332° |
| 2026-05-07 04:17 | 18.72506 | -68.85713 | 11075 ft | 333 kts | 332° |
| 2026-05-07 04:17 | 18.74548 | -68.86858 | 10606 ft | 330 kts | 332° |
| 2026-05-07 04:17 | 18.76564 | -68.87994 | 10139 ft | 329 kts | 332° |
| 2026-05-07 04:17 | 18.78561 | -68.89127 | 9667 ft | 327 kts | 332° |
| 2026-05-07 04:18 | 18.80577 | -68.90279 | 9188 ft | 324 kts | 332° |
| 2026-05-07 04:18 | 18.82558 | -68.91405 | 8712 ft | 323 kts | 334° |
| 2026-05-07 04:18 | 18.84669 | -68.92116 | 8231 ft | 317 kts | 354° |
| 2026-05-07 04:18 | 18.86846 | -68.91967 | 7746 ft | 312 kts | 17° |
| 2026-05-07 04:19 | 18.88692 | -68.90855 | 7439 ft | 299 kts | 49° |
| 2026-05-07 04:19 | 18.89612 | -68.89030 | 7515 ft | 276 kts | 80° |
| 2026-05-07 04:19 | 18.89422 | -68.87073 | 7580 ft | 268 kts | 115° |
| 2026-05-07 04:19 | 18.88225 | -68.85580 | 7578 ft | 273 kts | 146° |
| 2026-05-07 04:20 | 18.86575 | -68.84544 | 7580 ft | 273 kts | 148° |
| 2026-05-07 04:20 | 18.84940 | -68.83532 | 7587 ft | 272 kts | 148° |
| 2026-05-07 04:20 | 18.83309 | -68.82520 | 7586 ft | 273 kts | 148° |
| 2026-05-07 04:21 | 18.80005 | -68.80473 | 7598 ft | 273 kts | 148° |
| 2026-05-07 04:21 | 18.78372 | -68.79458 | 7600 ft | 273 kts | 147° |
| 2026-05-07 04:21 | 18.76838 | -68.78297 | 7603 ft | 272 kts | 137° |
| 2026-05-07 04:21 | 18.75497 | -68.76899 | 7606 ft | 271 kts | 130° |
| 2026-05-07 04:22 | 18.74290 | -68.75348 | 7606 ft | 271 kts | 126° |
| 2026-05-07 04:22 | 18.73197 | -68.73737 | 7601 ft | 271 kts | 123° |
| 2026-05-07 04:22 | 18.72164 | -68.72073 | 7600 ft | 270 kts | 121° |
| 2026-05-07 04:22 | 18.71178 | -68.70392 | 7595 ft | 268 kts | 120° |
| 2026-05-07 04:23 | 18.70219 | -68.68694 | 7362 ft | 273 kts | 119° |
| 2026-05-07 04:23 | 18.69267 | -68.66971 | 6989 ft | 269 kts | 118° |
| 2026-05-07 04:23 | 18.68350 | -68.65284 | 6623 ft | 265 kts | 118° |
| 2026-05-07 04:23 | 18.67445 | -68.63606 | 6258 ft | 261 kts | 118° |
| 2026-05-07 04:24 | 18.66558 | -68.61951 | 5890 ft | 258 kts | 118° |
| 2026-05-07 04:24 | 18.65679 | -68.60306 | 5517 ft | 255 kts | 118° |
| 2026-05-07 04:24 | 18.64814 | -68.58684 | 5149 ft | 251 kts | 118° |
| 2026-05-07 04:24 | 18.63953 | -68.57088 | 4781 ft | 249 kts | 121° |
| 2026-05-07 04:25 | 18.62700 | -68.55891 | 4406 ft | 249 kts | 156° |
| 2026-05-07 04:25 | 18.60996 | -68.55614 | 4157 ft | 244 kts | 176° |
| 2026-05-07 04:25 | 18.59297 | -68.55531 | 3934 ft | 243 kts | 173° |
| 2026-05-07 04:25 | 18.57629 | -68.55415 | 3564 ft | 239 kts | 172° |
| 2026-05-07 04:26 | 18.56101 | -68.54919 | 3225 ft | 222 kts | 137° |
| 2026-05-07 04:26 | 18.55308 | -68.53651 | 3060 ft | 202 kts | 97° |
| 2026-05-07 04:26 | 18.55358 | -68.52230 | 2912 ft | 188 kts | 84° |
| 2026-05-07 04:26 | 18.55479 | -68.50900 | 2748 ft | 175 kts | 85° |
| 2026-05-07 04:27 | 18.55581 | -68.49719 | 2705 ft | 160 kts | 85° |
| 2026-05-07 04:27 | 18.55685 | -68.48528 | 2548 ft | 161 kts | 85° |
| 2026-05-07 04:27 | 18.55785 | -68.47360 | 2382 ft | 157 kts | 85° |
| 2026-05-07 04:27 | 18.55881 | -68.46249 | 2152 ft | 143 kts | 85° |
| 2026-05-07 04:28 | 18.55970 | -68.45227 | 1902 ft | 143 kts | 85° |
| 2026-05-07 04:28 | 18.56059 | -68.44204 | 1649 ft | 138 kts | 85° |
| 2026-05-07 04:28 | 18.56147 | -68.43208 | 1354 ft | 136 kts | 85° |
| 2026-05-07 04:28 | 18.56232 | -68.42221 | 1021 ft | 138 kts | 85° |
| 2026-05-07 04:29 | 18.56316 | -68.41217 | 754 ft | 136 kts | 85° |
| 2026-05-07 04:29 | 18.56404 | -68.40223 | 540 ft | 136 kts | 85° |
| 2026-05-07 04:29 | 18.56489 | -68.39237 | 367 ft | 137 kts | 85° |
| 2026-05-07 04:29 | 18.56585 | -68.38229 | 198 ft | 138 kts | 84° |
| 2026-05-07 04:30 | 18.56660 | -68.37244 | 47 ft | 123 kts | 84° |
| 2026-05-07 04:30 | 18.56725 | -68.36513 | 39 ft | 76 kts | 84° |
| 2026-05-07 04:30 | 18.56759 | -68.36111 | 35 ft | 37 kts | 83° |
| 2026-05-07 04:30 | 18.56774 | -68.35933 | 34 ft | 13 kts | 85° |
| 2026-05-07 04:31 | 18.56782 | -68.35834 | 34 ft | 13 kts | 93° |
| 2026-05-07 04:31 | 18.56715 | -68.35788 | 35 ft | 12 kts | 174° |
| 2026-05-07 04:31 | 18.56628 | -68.35780 | 37 ft | 12 kts | 174° |
| 2026-05-07 04:31 | 18.56545 | -68.35780 | 37 ft | 12 kts | 192° |
| 2026-05-07 04:32 | 18.56473 | -68.35780 | 37 ft | 6 kts | 177° |
| 2026-05-07 04:32 | 18.56447 | -68.35811 | 37 ft | 3 kts | 263° |
| 2026-05-07 04:32 | 18.56444 | -68.35847 | 36 ft | 5 kts | 265° |
| 2026-05-07 04:32 | 18.56413 | -68.35855 | 36 ft | 5 kts | 123° |
| 2026-05-07 04:33 | 18.56414 | -68.35841 | 36 ft | 1 kts | 65° |
| 2026-05-07 04:33 | 18.56417 | -68.35826 | 36 ft | 0 kts | 85° |